默认 日期 大小 文件数 浏览量 最新下载 xml
mp3 2025磁力链接相关资源由用户搜索指令自动获取,结果来源于网络,本站不存储任何资料,亦不承担任何责任,请于24小时内删除,搜索到7503个磁力,显示前4000条数据,用时14ms。
    ... 13. Innocence (Live in Bucharest).mp3": 18078736, "14. Die Alive ... 500 Letters (Live in Bucharest).mp3": 10743541, "18. Shadow ... Dead Promises (Live in Bucharest).mp3": 14984845, "01. Mystique Voyage ... (Live in Bucharest).mp3": 15589402, "10. I ...
创建时间: 2025-05-17 10:41:26 大小:243.16 MB 文件数量:20 热度:1 最近下载:2025-05-19 01:16:03
    ... , "02. Green Day - American Idiot.mp3": 7214974, "23. Paramore - Misery Business ... .mp3": 8702911, "32. Paramore - crushcrushcrush.mp3": 7816838, "30. The ... Hot Chili Peppers - Dani California.mp3": 11529395, "16. The Downtown ...
创建时间: 2025-05-17 11:10:20 大小:271.05 MB 文件数量:35 热度:1 最近下载:2025-05-19 01:22:03
    ... - La Isla Bonita.mp3": 9865570, "077. Bwitched - Rollercoaster.mp3": 8251668, "085. ... Michael Sembello - Maniac.mp3": 10470430, "199. Chumbawamba - Tubthumping.mp3": 9470294, "212. ... "029. Gerry Rafferty - Baker Street.mp3": 10058176, "039. Nicolette Larson - ...
创建时间: 2025-05-17 11:38:51 大小:1.98 GB 文件数量:221 热度:1 最近下载:2025-05-19 01:28:01
    ... - Roman Messer - Serendipity [Extended Mix].mp3": 12416723, "14 - Roman Messer & ... Messer & Inrayzex - Gravity [Extended Mix].mp3": 14270379, "17 - Roman Messer - ... Irreplaceable Love [Extended Mix].mp3": 11828453, "06 - Roman Messer & ...
创建时间: 2025-05-17 12:43:47 大小:275.79 MB 文件数量:24 热度:1 最近下载:2025-05-19 01:36:03
    ... . Fantasia.mp3": 9979419, "07. Love Vape.mp3": 8695001, "03. Betty Ford.mp3": 10738775 ... , "01. Salvage Title.mp3": 6874022, "05. Hollow Skulls.mp3": 11876767, "09. Resident ... Evil.mp3": 10268107, "02. Tree ...
创建时间: 2025-05-17 13:19:12 大小:106.6 MB 文件数量:13 热度:4 最近下载:2025-09-17 10:34:08
    ... Rodriguez - Departures (Araguz Remix).mp3": 19727660, "29. Sebastian Campo ... Matias Tassara - Reincarnation (Lomandeep Remix).mp3": 13977619, "05. Lautaro Herrera ... Secretvision - Together Somewhere (Monuloku Remix).mp3": 19265849, "51. Paul Lennar ...
创建时间: 2025-05-17 13:44:25 大小:1.34 GB 文件数量:81 热度:1 最近下载:2025-05-19 01:42:02
    ... {"05. Why Worry.mp3": 20510805, "08. One World.mp3": 8887048, "03. ... . So Far Away (Full Version).mp3": 12557756}, "CD2": {"03. ... (San Antonio Live In 85).mp3": 10626629, "02. Expresso Love ... (San Antonio Live In 85).mp3": 25320932, "05. Private Investigations ...
创建时间: 2025-05-17 14:29:43 大小:412.2 MB 文件数量:24 热度:2 最近下载:2025-09-08 20:53:05
    ... , "10 - Берёзка.mp3": 7922906, "02 - Ой, калина.mp3": 8934371, "08 - Не ... , "04 - Танцы под дождём.mp3": 9374285, "09 - Глаза цвета ночи ... .mp3": 8129812, "03 - Последний разговор.mp3": 9212330, "07 - Я ...
创建时间: 2025-05-17 14:34:47 大小:82.58 MB 文件数量:11 热度:3 最近下载:2025-09-25 10:24:02
    ... . Baltimore (demo 09.03.09).mp3": 5876420, "05. Key Largo (demo ... 08.20.09).mp3": 5221660, "04. Pigeon (demo ... version 08.26.09).mp3": 7231972, "02. Marathon (demo version ... (demo version 11.03.09).mp3": 5442370, "01. South Carolina (demo ...
创建时间: 2025-05-17 15:18:39 大小:42.66 MB 文件数量:10 热度:4 最近下载:2025-09-18 19:54:01
    ... .mp3": 4939716, "16 - Landlord.mp3": 7596893, "05 - So Lonely.mp3": 11681400, "21 - Deathwish.mp3 ... .mp3": 6716044, "14 - Darkness.mp3": 7786019, "16 - Low Life.mp3": 9016909, "03 - Shambelle.mp3 ...
创建时间: 2025-05-17 15:52:17 大小:655.81 MB 文件数量:98 热度:3 最近下载:2025-09-15 13:34:06
    ... Elliott - Pass That Dutch.mp3": 9000855, "35. Sturgill ... nowhere. - VEN0M (feat. UNDEROATH).mp3": 9354406, "15. Jack Harlow ... - Drowning (feat. Kodak Black).mp3": 8520809, "05. Omar Apollo ... (Remix) [feat. Justin Quiles].mp3": 8439252, "14. Shoreline Mafia ...
创建时间: 2025-05-17 16:06:27 大小:316.55 MB 文件数量:41 热度:1 最近下载:2025-05-19 01:55:02
    ... ü Beker - Defterli (Erhan Boraer Remix).mp3": 8680103, "Hande Yener - Unutulmuyor (Catwork ... ı (Anıl Demirli Remix) [Extended].mp3": 9519136, "Sura İskenderli - Derinlere İ ... niyorum (Erhan Boraer Remix).mp3": 8002990, "Demet Akalın - Afedersin ...
创建时间: 2025-05-17 16:17:27 大小:306.77 MB 文件数量:18 热度:3 最近下载:2025-09-17 10:25:17
    ... [Talla 2XLC Remix].mp3": 11571295}, "2025 - 30 Years Of ... - RAM - Elijah [Driftmoon Remix].mp3": 9102148, "12 - RAM - ... RAMbulance [Inoblivion Remix].mp3": 9882691, "02 - RAM - ... Allen Watts - Deceiver [Kinetica Remix].mp3": 9110522, "11 - RAM & ...
创建时间: 2025-05-17 16:19:23 大小:311.77 MB 文件数量:32 热度:1 最近下载:2025-05-19 01:56:03
    ... MATTY - Psy (MEGZU MASH) 2025.mp3": 3191554, "19.Yusef Kifah - ... Sound Bass - Toca non stop (2025).mp3": 8324661, "27.Aquagen & ... ASHID & LOOZBONE - Jump around (2025).mp3": 7902522, "13.Olivia Addams & ... friend (spacedj Mush Up) 2025).mp3": 8129265, "26.Marnik, ...
创建时间: 2025-05-17 16:39:53 大小:236.11 MB 文件数量:30 热度:1 最近下载:2025-05-19 01:58:01
    ... .mp3": 6800049, "12. Spot.mp3": 6624578, "01. Intro.mp3": 785619, "19. West Up.mp3 ... ": 6763488, "20. My Friend.mp3": 10605600 ... . Can't Get Enough.mp3": 6959977, "13. ShutYoBitchAssUp.mp3": 4816895, "16. Life ...
创建时间: 2025-05-17 16:45:22 大小:132.57 MB 文件数量:21 热度:2 最近下载:2025-09-25 09:08:01
    ... 39428, "29. Coldplay - Yellow.mp3": 10765134, "31. Madonna - ... Perri - A Thousand Years.mp3": 11499421, "41. Lily Allen ... Alex Warren - Ordinary (Wedding Version).mp3": 7569823, "17. Fleetwood Mac ... - Songbird (2004 Remaster).mp3": 8124175, "16. Bebe Rexha ...
创建时间: 2025-05-17 16:53:59 大小:356.91 MB 文件数量:44 热度:1 最近下载:2025-05-19 02:03:01
    ... - Sciomancy, Malediction & Rites Abominable (2025) [mp3@320] [Fallen Angel].cue": 1391 ... Sciomancy, Malediction & Rites Abominable (2025) [mp3@320] [Fallen Angel].log": 8870 ... - Sciomancy, Malediction & Rites Abominable (2025) [mp3@320] [Fallen Angel].m3u": 292 ...
创建时间: 2025-05-17 17:36:53 大小:117.56 MB 文件数量:18 热度:3 最近下载:2025-09-19 06:43:01
    ... 10. Mac Miller - Funny Papers.mp3": 10685590, "33. Jack Harlow ... 26. Chiseko - STAY (LUSTBASS Remix).mp3": 7294656, "14. Rico Nasty - ... TEETHSUCKER (YEA3x).mp3": 5670309, "15. Jack Harlow ... - BABYGIRL (feat. Lil Tjay).mp3": 6124253, "02. Wale - ...
创建时间: 2025-05-17 17:57:33 大小:239.2 MB 文件数量:37 热度:2 最近下载:2025-07-03 11:37:01
    ... - Bananarama - Venus.mp3": 9337335, "06 - Bananarama - Help!.mp3": 7331113, "08 - ... - Movin' On.mp3": 11082321, "18 - Bananarama - Supernova.mp3": 8850309, "47 ... - Bananarama - Favourite.mp3": 7653994, "48 - ...
创建时间: 2025-05-17 18:39:13 大小:408 MB 文件数量:52 热度:1 最近下载:2025-05-19 02:12:03
    ... , "04. PINK.mp3": 5874364, "08. GRAVE.mp3": 4182031, "11. CRASH.mp3": 6568875, "15 ... . SMILE.mp3": 7362745, "06 ... . EAT ME!.mp3": 7130548 ...
创建时间: 2025-05-18 08:14:05 大小:79.11 MB 文件数量:17 热度:1 最近下载:2025-05-19 02:22:01